Terminal Aerodrome Forecast
Issued by NWS Shreveport, LA

Home | Current Version | Previous Version | Text Only | Print | Product List | Glossary On
Versions: 1 2 3 4 5 6 7 8 9 10 11 12 13 14 15 16 17 18 19 20
000
FTUS44 KSHV 071149
TAFTXK
TAF
KTXK 071149Z 0712/0812 20009KT P6SM BKN250
      TEMPO 0713/0715 6SM BR BKN015 OVC250
     FM071500 18007KT 5SM BR BKN015 OVC250
     FM071600 20012KT P6SM SCT015 BKN035
     FM071700 20012G20KT P6SM SCT035 SCT250
     FM072100 20012G18KT P6SM VCTS OVC045CB
     FM080200 17006KT P6SM OVC250=

USA.gov is the U.S. government's official web portal to all federal, state and local government web resources and services.